sensor_id;sensor_type;location;lat;lon;timestamp;pressure;altitude;pressure_sealevel;temperature;humidity
141;BME280;65;48.778;9.160;2023-02-18T00:01:48;99423.25;;;12.10;86.69
141;BME280;65;48.778;9.160;2023-02-18T00:04:34;99430.72;;;12.02;86.62
141;BME280;65;48.778;9.160;2023-02-18T00:07:19;99424.66;;;12.00;87.31
141;BME280;65;48.778;9.160;2023-02-18T00:10:07;99437.38;;;12.11;86.91
141;BME280;65;48.778;9.160;2023-02-18T00:12:53;99440.53;;;12.00;87.21
141;BME280;65;48.778;9.160;2023-02-18T00:15:39;99444.19;;;11.97;87.39
141;BME280;65;48.778;9.160;2023-02-18T00:18:25;99439.38;;;12.06;86.18
141;BME280;65;48.778;9.160;2023-02-18T00:21:11;99429.66;;;12.06;87.07
141;BME280;65;48.778;9.160;2023-02-18T00:23:57;99431.50;;;12.04;86.95
141;BME280;65;48.778;9.160;2023-02-18T00:26:43;99428.78;;;12.06;87.14
141;BME280;65;48.778;9.160;2023-02-18T00:29:29;99430.56;;;12.05;86.48
141;BME280;65;48.778;9.160;2023-02-18T00:32:15;99432.44;;;12.03;87.13
141;BME280;65;48.778;9.160;2023-02-18T00:35:01;99434.31;;;12.01;87.44
141;BME280;65;48.778;9.160;2023-02-18T00:37:50;99436.09;;;12.00;86.65
141;BME280;65;48.778;9.160;2023-02-18T00:40:37;99434.47;;;11.98;87.22
141;BME280;65;48.778;9.160;2023-02-18T00:43:23;99433.53;;;11.99;86.85
141;BME280;65;48.778;9.160;2023-02-18T00:46:09;99416.69;;;12.00;86.91
141;BME280;65;48.778;9.160;2023-02-18T00:48:55;99404.53;;;11.96;86.95
141;BME280;65;48.778;9.160;2023-02-18T00:51:41;99398.16;;;12.00;86.34
141;BME280;65;48.778;9.160;2023-02-18T00:54:27;99400.66;;;12.03;86.42
141;BME280;65;48.778;9.160;2023-02-18T00:57:13;99399.41;;;11.93;86.90
141;BME280;65;48.778;9.160;2023-02-18T00:59:59;99405.16;;;12.01;86.01
141;BME280;65;48.778;9.160;2023-02-18T01:02:44;99402.00;;;12.46;83.84
141;BME280;65;48.778;9.160;2023-02-18T01:05:30;99404.25;;;12.54;83.47
141;BME280;65;48.778;9.160;2023-02-18T01:08:18;99397.31;;;12.51;83.20
141;BME280;65;48.778;9.160;2023-02-18T01:11:05;99403.31;;;12.55;82.39
141;BME280;65;48.778;9.160;2023-02-18T01:13:51;99398.72;;;12.58;82.22
141;BME280;65;48.778;9.160;2023-02-18T01:16:36;99393.66;;;12.54;82.55
141;BME280;65;48.778;9.160;2023-02-18T01:19:22;99389.22;;;12.54;82.59
141;BME280;65;48.778;9.160;2023-02-18T01:22:08;99383.91;;;12.54;82.42
141;BME280;65;48.778;9.160;2023-02-18T01:24:54;99395.78;;;12.47;82.51
141;BME280;65;48.778;9.160;2023-02-18T01:27:39;99390.47;;;12.47;82.49
141;BME280;65;48.778;9.160;2023-02-18T01:30:25;99386.25;;;12.43;83.08
141;BME280;65;48.778;9.160;2023-02-18T01:33:11;99386.72;;;12.34;83.32
141;BME280;65;48.778;9.160;2023-02-18T01:35:57;99379.94;;;12.28;83.83
141;BME280;65;48.778;9.160;2023-02-18T01:38:43;99383.53;;;12.27;83.83
141;BME280;65;48.778;9.160;2023-02-18T01:41:28;99386.50;;;12.21;83.76
141;BME280;65;48.778;9.160;2023-02-18T01:47:02;99386.47;;;12.04;84.83
141;BME280;65;48.778;9.160;2023-02-18T01:49:51;99384.97;;;11.62;87.02
141;BME280;65;48.778;9.160;2023-02-18T01:52:37;99378.03;;;11.41;88.54
141;BME280;65;48.778;9.160;2023-02-18T01:55:23;99380.91;;;11.36;89.26
141;BME280;65;48.778;9.160;2023-02-18T01:58:10;99375.38;;;11.41;88.05
141;BME280;65;48.778;9.160;2023-02-18T02:00:57;99380.38;;;11.47;88.13
141;BME280;65;48.778;9.160;2023-02-18T02:03:43;99376.72;;;11.50;87.84
141;BME280;65;48.778;9.160;2023-02-18T02:06:28;99382.09;;;11.48;88.04
141;BME280;65;48.778;9.160;2023-02-18T02:09:16;99372.44;;;11.47;87.86
141;BME280;65;48.778;9.160;2023-02-18T02:15:38;99381.38;;;11.45;87.88
141;BME280;65;48.778;9.160;2023-02-18T02:25:15;99386.06;;;11.58;86.83
141;BME280;65;48.778;9.160;2023-02-18T02:45:54;99348.69;;;11.64;86.13
141;BME280;65;48.778;9.160;2023-02-18T02:49:07;99352.13;;;11.66;86.04
141;BME280;65;48.778;9.160;2023-02-18T02:52:29;99351.41;;;11.63;86.03
141;BME280;65;48.778;9.160;2023-02-18T02:55:15;99351.91;;;11.52;86.75
141;BME280;65;48.778;9.160;2023-02-18T02:58:01;99350.13;;;11.53;86.56
141;BME280;65;48.778;9.160;2023-02-18T03:03:44;99350.03;;;11.54;86.46
141;BME280;65;48.778;9.160;2023-02-18T03:15:54;99354.72;;;11.30;87.14
141;BME280;65;48.778;9.160;2023-02-18T03:19:48;99347.72;;;11.29;87.06
141;BME280;65;48.778;9.160;2023-02-18T03:22:30;99341.28;;;11.35;87.26
141;BME280;65;48.778;9.160;2023-02-18T03:25:17;99343.06;;;11.34;87.19
141;BME280;65;48.778;9.160;2023-02-18T03:28:14;99324.38;;;11.37;87.41
141;BME280;65;48.778;9.160;2023-02-18T03:31:06;99331.41;;;11.20;88.17
141;BME280;65;48.778;9.160;2023-02-18T03:34:05;99330.56;;;11.19;88.08
141;BME280;65;48.778;9.160;2023-02-18T03:36:52;99320.19;;;11.15;88.09
141;BME280;65;48.778;9.160;2023-02-18T03:39:42;99332.53;;;10.95;89.70
141;BME280;65;48.778;9.160;2023-02-18T03:42:29;99327.81;;;10.83;90.22
141;BME280;65;48.778;9.160;2023-02-18T03:45:14;99323.81;;;10.74;91.50
141;BME280;65;48.778;9.160;2023-02-18T03:48:00;99323.59;;;10.79;91.21
141;BME280;65;48.778;9.160;2023-02-18T03:50:46;99316.66;;;10.76;91.20
141;BME280;65;48.778;9.160;2023-02-18T03:53:32;99331.16;;;10.68;91.43
141;BME280;65;48.778;9.160;2023-02-18T03:56:19;99327.75;;;10.66;91.78
141;BME280;65;48.778;9.160;2023-02-18T03:59:05;99335.50;;;10.50;92.73
141;BME280;65;48.778;9.160;2023-02-18T04:01:51;99337.69;;;10.40;93.79
141;BME280;65;48.778;9.160;2023-02-18T04:04:37;99335.16;;;10.37;94.08
141;BME280;65;48.778;9.160;2023-02-18T04:07:22;99332.78;;;10.31;95.25
141;BME280;65;48.778;9.160;2023-02-18T04:10:08;99334.22;;;10.38;95.08
141;BME280;65;48.778;9.160;2023-02-18T04:12:54;99342.50;;;10.51;94.16
141;BME280;65;48.778;9.160;2023-02-18T04:15:40;99331.59;;;10.59;94.14
141;BME280;65;48.778;9.160;2023-02-18T04:18:25;99330.44;;;10.64;93.46
141;BME280;65;48.778;9.160;2023-02-18T04:21:11;99335.31;;;10.73;92.68
141;BME280;65;48.778;9.160;2023-02-18T04:23:57;99330.19;;;10.70;93.06
141;BME280;65;48.778;9.160;2023-02-18T04:26:43;99326.03;;;10.65;93.34
141;BME280;65;48.778;9.160;2023-02-18T04:29:29;99315.72;;;10.59;92.82
141;BME280;65;48.778;9.160;2023-02-18T04:32:14;99305.78;;;10.45;93.84
141;BME280;65;48.778;9.160;2023-02-18T04:35:00;99314.78;;;10.41;94.41
141;BME280;65;48.778;9.160;2023-02-18T04:37:46;99328.16;;;10.36;94.57
141;BME280;65;48.778;9.160;2023-02-18T04:40:32;99310.72;;;10.32;94.64
141;BME280;65;48.778;9.160;2023-02-18T04:43:17;99316.16;;;10.29;94.43
141;BME280;65;48.778;9.160;2023-02-18T04:46:03;99316.84;;;10.12;95.37
141;BME280;65;48.778;9.160;2023-02-18T04:48:49;99317.72;;;10.13;95.82
141;BME280;65;48.778;9.160;2023-02-18T04:51:35;99325.50;;;10.16;95.23
141;BME280;65;48.778;9.160;2023-02-18T04:54:22;99323.47;;;10.02;96.47
141;BME280;65;48.778;9.160;2023-02-18T04:57:07;99335.53;;;9.88;97.44
141;BME280;65;48.778;9.160;2023-02-18T04:59:53;99328.91;;;9.77;98.62
141;BME280;65;48.778;9.160;2023-02-18T05:02:39;99334.75;;;9.86;97.99
141;BME280;65;48.778;9.160;2023-02-18T05:05:24;99326.19;;;9.79;98.07
141;BME280;65;48.778;9.160;2023-02-18T05:08:11;99330.13;;;9.69;99.18
141;BME280;65;48.778;9.160;2023-02-18T05:10:56;99329.47;;;9.64;99.01
141;BME280;65;48.778;9.160;2023-02-18T05:13:42;99328.22;;;9.72;98.74
141;BME280;65;48.778;9.160;2023-02-18T05:16:28;99332.03;;;9.65;98.41
141;BME280;65;48.778;9.160;2023-02-18T05:19:15;99337.88;;;9.51;99.82
141;BME280;65;48.778;9.160;2023-02-18T05:22:01;99336.22;;;9.49;100.00
141;BME280;65;48.778;9.160;2023-02-18T05:24:47;99332.78;;;9.47;99.91
141;BME280;65;48.778;9.160;2023-02-18T05:27:32;99331.75;;;9.29;100.00
141;BME280;65;48.778;9.160;2023-02-18T05:30:18;99330.56;;;9.14;100.00
141;BME280;65;48.778;9.160;2023-02-18T05:33:04;99326.44;;;9.07;100.00
141;BME280;65;48.778;9.160;2023-02-18T05:35:50;99326.84;;;8.97;100.00
141;BME280;65;48.778;9.160;2023-02-18T05:38:35;99325.25;;;8.93;100.00
141;BME280;65;48.778;9.160;2023-02-18T05:41:21;99321.47;;;9.00;100.00
141;BME280;65;48.778;9.160;2023-02-18T05:44:07;99321.22;;;9.06;100.00
141;BME280;65;48.778;9.160;2023-02-18T05:47:12;99320.13;;;9.11;100.00
141;BME280;65;48.778;9.160;2023-02-18T05:49:57;99321.78;;;9.14;100.00
141;BME280;65;48.778;9.160;2023-02-18T05:52:43;99320.69;;;9.19;100.00
141;BME280;65;48.778;9.160;2023-02-18T05:55:29;99315.13;;;9.27;100.00
141;BME280;65;48.778;9.160;2023-02-18T05:58:14;99315.06;;;9.29;100.00
141;BME280;65;48.778;9.160;2023-02-18T06:01:01;99308.81;;;9.31;100.00
141;BME280;65;48.778;9.160;2023-02-18T06:03:47;99320.09;;;9.35;100.00
141;BME280;65;48.778;9.160;2023-02-18T06:06:33;99314.09;;;9.31;100.00
141;BME280;65;48.778;9.160;2023-02-18T06:09:19;99313.44;;;9.25;100.00
141;BME280;65;48.778;9.160;2023-02-18T06:12:05;99317.25;;;9.17;100.00
141;BME280;65;48.778;9.160;2023-02-18T06:14:51;99314.06;;;9.09;100.00
141;BME280;65;48.778;9.160;2023-02-18T06:17:36;99319.34;;;9.09;100.00
141;BME280;65;48.778;9.160;2023-02-18T06:20:22;99321.16;;;9.07;100.00
141;BME280;65;48.778;9.160;2023-02-18T06:23:08;99322.25;;;9.02;100.00
141;BME280;65;48.778;9.160;2023-02-18T06:25:54;99314.78;;;8.91;100.00
141;BME280;65;48.778;9.160;2023-02-18T06:28:39;99322.69;;;8.91;100.00
141;BME280;65;48.778;9.160;2023-02-18T06:31:26;99319.00;;;8.95;100.00
141;BME280;65;48.778;9.160;2023-02-18T06:34:11;99317.28;;;8.94;100.00
141;BME280;65;48.778;9.160;2023-02-18T06:36:57;99321.34;;;9.03;100.00
141;BME280;65;48.778;9.160;2023-02-18T06:39:43;99318.97;;;9.18;100.00
141;BME280;65;48.778;9.160;2023-02-18T06:42:29;99316.41;;;9.39;100.00
141;BME280;65;48.778;9.160;2023-02-18T06:45:14;99317.09;;;9.44;100.00
141;BME280;65;48.778;9.160;2023-02-18T06:48:00;99320.09;;;9.57;100.00
141;BME280;65;48.778;9.160;2023-02-18T06:50:47;99313.56;;;9.65;100.00
141;BME280;65;48.778;9.160;2023-02-18T06:53:33;99323.88;;;9.71;100.00
141;BME280;65;48.778;9.160;2023-02-18T06:56:19;99330.38;;;9.85;100.00
141;BME280;65;48.778;9.160;2023-02-18T06:59:04;99337.13;;;9.92;100.00
141;BME280;65;48.778;9.160;2023-02-18T07:01:50;99315.34;;;10.07;100.00
141;BME280;65;48.778;9.160;2023-02-18T07:04:36;99319.97;;;10.22;100.00
141;BME280;65;48.778;9.160;2023-02-18T07:07:21;99320.72;;;10.26;99.47
141;BME280;65;48.778;9.160;2023-02-18T07:10:08;99318.84;;;10.48;97.51
141;BME280;65;48.778;9.160;2023-02-18T07:12:54;99321.88;;;10.59;97.78
141;BME280;65;48.778;9.160;2023-02-18T07:15:40;99317.31;;;10.82;95.53
141;BME280;65;48.778;9.160;2023-02-18T07:18:26;99312.53;;;10.90;95.33
141;BME280;65;48.778;9.160;2023-02-18T07:20:51;99308.56;;;11.00;94.30
141;BME280;65;48.778;9.160;2023-02-18T07:23:16;99318.84;;;11.06;93.59
141;BME280;65;48.778;9.160;2023-02-18T07:25:42;99316.19;;;11.25;92.46
141;BME280;65;48.778;9.160;2023-02-18T07:28:07;99320.53;;;11.26;92.68
141;BME280;65;48.778;9.160;2023-02-18T07:30:33;99312.31;;;11.32;92.06
141;BME280;65;48.778;9.160;2023-02-18T07:32:58;99302.66;;;11.31;91.40
141;BME280;65;48.778;9.160;2023-02-18T07:35:23;99304.09;;;11.55;90.35
141;BME280;65;48.778;9.160;2023-02-18T07:37:49;99299.00;;;11.69;89.28
141;BME280;65;48.778;9.160;2023-02-18T07:40:20;99299.78;;;11.71;88.55
141;BME280;65;48.778;9.160;2023-02-18T07:42:46;99292.97;;;11.85;87.97
141;BME280;65;48.778;9.160;2023-02-18T07:45:12;99284.47;;;11.78;88.60
141;BME280;65;48.778;9.160;2023-02-18T07:47:38;99285.78;;;11.87;87.78
141;BME280;65;48.778;9.160;2023-02-18T07:50:04;99292.97;;;11.85;88.32
141;BME280;65;48.778;9.160;2023-02-18T07:52:30;99291.78;;;11.90;87.22
141;BME280;65;48.778;9.160;2023-02-18T07:54:56;99281.97;;;11.92;87.59
141;BME280;65;48.778;9.160;2023-02-18T07:57:21;99272.38;;;12.07;86.70
141;BME280;65;48.778;9.160;2023-02-18T07:59:46;99271.44;;;12.25;85.65
141;BME280;65;48.778;9.160;2023-02-18T08:02:16;99279.16;;;12.30;85.87
141;BME280;65;48.778;9.160;2023-02-18T08:04:42;99281.88;;;12.28;85.92
141;BME280;65;48.778;9.160;2023-02-18T08:07:12;99283.34;;;12.34;85.01
141;BME280;65;48.778;9.160;2023-02-18T08:09:37;99293.09;;;12.33;85.18
141;BME280;65;48.778;9.160;2023-02-18T08:12:03;99289.00;;;12.44;84.00
141;BME280;65;48.778;9.160;2023-02-18T08:14:28;99286.16;;;12.31;84.56
141;BME280;65;48.778;9.160;2023-02-18T08:16:54;99281.56;;;12.34;84.44
141;BME280;65;48.778;9.160;2023-02-18T08:19:19;99285.13;;;12.33;84.75
141;BME280;65;48.778;9.160;2023-02-18T08:21:45;99304.09;;;12.26;84.91
141;BME280;65;48.778;9.160;2023-02-18T08:24:10;99304.19;;;12.24;84.99
141;BME280;65;48.778;9.160;2023-02-18T08:26:36;99291.13;;;12.37;84.38
141;BME280;65;48.778;9.160;2023-02-18T08:29:02;99282.09;;;12.41;84.56
141;BME280;65;48.778;9.160;2023-02-18T08:31:29;99287.00;;;12.64;82.22
141;BME280;65;48.778;9.160;2023-02-18T08:33:56;99280.06;;;12.62;81.83
141;BME280;65;48.778;9.160;2023-02-18T08:36:23;99287.13;;;12.79;80.47
141;BME280;65;48.778;9.160;2023-02-18T08:38:49;99280.03;;;12.95;78.53
141;BME280;65;48.778;9.160;2023-02-18T08:41:14;99286.28;;;13.10;77.60
141;BME280;65;48.778;9.160;2023-02-18T08:43:40;99277.06;;;13.17;76.98
141;BME280;65;48.778;9.160;2023-02-18T08:46:06;99277.56;;;13.08;78.03
141;BME280;65;48.778;9.160;2023-02-18T08:48:31;99275.69;;;13.10;77.72
141;BME280;65;48.778;9.160;2023-02-18T08:50:57;99282.53;;;13.14;76.63
141;BME280;65;48.778;9.160;2023-02-18T08:53:23;99279.97;;;13.28;75.99
141;BME280;65;48.778;9.160;2023-02-18T08:55:49;99275.88;;;13.38;75.31
141;BME280;65;48.778;9.160;2023-02-18T08:58:20;99287.84;;;13.14;77.02
141;BME280;65;48.778;9.160;2023-02-18T09:00:45;99282.28;;;13.50;74.63
141;BME280;65;48.778;9.160;2023-02-18T09:03:14;99274.81;;;13.56;74.92
141;BME280;65;48.778;9.160;2023-02-18T09:05:40;99281.31;;;13.67;73.67
141;BME280;65;48.778;9.160;2023-02-18T09:08:05;99267.03;;;13.83;72.37
141;BME280;65;48.778;9.160;2023-02-18T09:10:31;99261.56;;;13.71;73.64
141;BME280;65;48.778;9.160;2023-02-18T09:12:56;99260.94;;;13.81;72.22
141;BME280;65;48.778;9.160;2023-02-18T09:15:21;99252.47;;;13.75;72.94
141;BME280;65;48.778;9.160;2023-02-18T09:17:47;99255.91;;;13.77;72.78
141;BME280;65;48.778;9.160;2023-02-18T09:20:12;99257.06;;;13.87;72.29
141;BME280;65;48.778;9.160;2023-02-18T09:22:38;99246.88;;;13.95;70.65
141;BME280;65;48.778;9.160;2023-02-18T09:25:04;99252.03;;;13.82;72.03
141;BME280;65;48.778;9.160;2023-02-18T09:27:29;99253.41;;;14.48;69.49
141;BME280;65;48.778;9.160;2023-02-18T09:29:55;99235.91;;;14.72;67.29
141;BME280;65;48.778;9.160;2023-02-18T09:32:20;99240.53;;;14.83;67.71
141;BME280;65;48.778;9.160;2023-02-18T09:34:46;99234.53;;;15.08;66.13
141;BME280;65;48.778;9.160;2023-02-18T09:37:11;99238.53;;;14.86;66.44
141;BME280;65;48.778;9.160;2023-02-18T09:39:37;99243.34;;;14.53;68.03
141;BME280;65;48.778;9.160;2023-02-18T09:42:04;99236.81;;;14.29;68.20
141;BME280;65;48.778;9.160;2023-02-18T09:44:34;99221.72;;;14.15;69.33
141;BME280;65;48.778;9.160;2023-02-18T09:49:53;99231.22;;;14.19;69.21
141;BME280;65;48.778;9.160;2023-02-18T09:52:26;99231.13;;;14.35;68.36
141;BME280;65;48.778;9.160;2023-02-18T09:54:54;99227.78;;;14.47;67.48
141;BME280;65;48.778;9.160;2023-02-18T09:57:28;99222.38;;;14.33;68.59
141;BME280;65;48.778;9.160;2023-02-18T10:00:00;99235.41;;;14.37;68.57
141;BME280;65;48.778;9.160;2023-02-18T10:02:27;99247.09;;;14.20;69.18
141;BME280;65;48.778;9.160;2023-02-18T10:04:53;99228.66;;;14.17;68.58
141;BME280;65;48.778;9.160;2023-02-18T10:07:25;99239.56;;;14.13;69.74
141;BME280;65;48.778;9.160;2023-02-18T10:09:53;99225.34;;;14.14;69.71
141;BME280;65;48.778;9.160;2023-02-18T10:12:22;99226.94;;;14.16;69.50
141;BME280;65;48.778;9.160;2023-02-18T10:14:56;99226.94;;;14.02;71.30
141;BME280;65;48.778;9.160;2023-02-18T10:17:24;99225.13;;;14.03;70.04
141;BME280;65;48.778;9.160;2023-02-18T10:19:52;99226.94;;;14.16;70.10
141;BME280;65;48.778;9.160;2023-02-18T10:22:19;99229.59;;;14.02;69.70
141;BME280;65;48.778;9.160;2023-02-18T10:24:52;99230.19;;;14.21;70.46
141;BME280;65;48.778;9.160;2023-02-18T10:27:33;99239.16;;;14.49;67.50
141;BME280;65;48.778;9.160;2023-02-18T10:32:43;99234.69;;;14.49;67.44
141;BME280;65;48.778;9.160;2023-02-18T10:35:16;99229.19;;;14.52;67.78
141;BME280;65;48.778;9.160;2023-02-18T10:49:32;99225.28;;;14.99;65.13
141;BME280;65;48.778;9.160;2023-02-18T10:52:04;99222.44;;;15.02;64.69
141;BME280;65;48.778;9.160;2023-02-18T10:55:08;99219.06;;;14.86;65.29
141;BME280;65;48.778;9.160;2023-02-18T10:57:45;99217.50;;;14.96;66.17
141;BME280;65;48.778;9.160;2023-02-18T11:03:02;99206.06;;;15.35;63.01
141;BME280;65;48.778;9.160;2023-02-18T11:05:28;99210.84;;;15.30;62.64
141;BME280;65;48.778;9.160;2023-02-18T11:07:56;99199.88;;;15.35;62.01
141;BME280;65;48.778;9.160;2023-02-18T11:12:50;99208.88;;;14.93;63.92
141;BME280;65;48.778;9.160;2023-02-18T11:15:24;99211.06;;;14.86;63.35
141;BME280;65;48.778;9.160;2023-02-18T11:17:56;99188.50;;;14.65;63.70
141;BME280;65;48.778;9.160;2023-02-18T11:20:31;99194.81;;;14.91;63.12
141;BME280;65;48.778;9.160;2023-02-18T11:25:32;99181.63;;;15.16;62.51
141;BME280;65;48.778;9.160;2023-02-18T11:30:52;99191.34;;;15.03;61.78
141;BME280;65;48.778;9.160;2023-02-18T11:33:30;99169.25;;;15.15;60.99
141;BME280;65;48.778;9.160;2023-02-18T11:35:57;99180.25;;;14.96;60.58
141;BME280;65;48.778;9.160;2023-02-18T11:38:44;99175.13;;;15.20;60.20
141;BME280;65;48.778;9.160;2023-02-18T11:41:14;99180.53;;;15.06;61.17
141;BME280;65;48.778;9.160;2023-02-18T11:43:41;99167.81;;;15.36;59.67
141;BME280;65;48.778;9.160;2023-02-18T11:46:25;99151.69;;;15.12;59.95
141;BME280;65;48.778;9.160;2023-02-18T11:48:52;99154.28;;;15.27;59.22
141;BME280;65;48.778;9.160;2023-02-18T11:51:33;99146.69;;;14.94;60.32
141;BME280;65;48.778;9.160;2023-02-18T11:59:22;99141.59;;;15.70;58.22
141;BME280;65;48.778;9.160;2023-02-18T12:01:56;99155.38;;;15.89;58.02
141;BME280;65;48.778;9.160;2023-02-18T12:04:35;99148.31;;;15.75;57.55
141;BME280;65;48.778;9.160;2023-02-18T12:09:48;99153.00;;;16.10;57.20
141;BME280;65;48.778;9.160;2023-02-18T12:14:43;99141.06;;;16.03;56.29
141;BME280;65;48.778;9.160;2023-02-18T12:17:25;99136.28;;;15.95;58.15
141;BME280;65;48.778;9.160;2023-02-18T12:23:23;99149.25;;;16.12;55.55
141;BME280;65;48.778;9.160;2023-02-18T12:47:19;99128.84;;;15.48;56.56
141;BME280;65;48.778;9.160;2023-02-18T12:56:24;99129.44;;;15.26;57.37
141;BME280;65;48.778;9.160;2023-02-18T13:01:51;99124.13;;;15.26;56.67
141;BME280;65;48.778;9.160;2023-02-18T13:10:27;99135.63;;;15.27;56.35
141;BME280;65;48.778;9.160;2023-02-18T13:18:00;99126.56;;;14.90;58.49
141;BME280;65;48.778;9.160;2023-02-18T13:20:40;99117.34;;;14.40;59.85
141;BME280;65;48.778;9.160;2023-02-18T13:23:15;99119.47;;;14.20;60.92
141;BME280;65;48.778;9.160;2023-02-18T13:25:42;99109.19;;;14.43;59.62
141;BME280;65;48.778;9.160;2023-02-18T13:28:19;99112.88;;;14.40;60.26
141;BME280;65;48.778;9.160;2023-02-18T13:30:55;99110.03;;;14.58;59.25
141;BME280;65;48.778;9.160;2023-02-18T13:33:46;99110.09;;;14.42;59.32
141;BME280;65;48.778;9.160;2023-02-18T13:39:09;99093.50;;;14.38;59.06
141;BME280;65;48.778;9.160;2023-02-18T13:41:43;99098.25;;;14.62;58.70
141;BME280;65;48.778;9.160;2023-02-18T13:46:57;99092.75;;;14.77;57.29
141;BME280;65;48.778;9.160;2023-02-18T13:49:26;99098.09;;;14.77;57.76
141;BME280;65;48.778;9.160;2023-02-18T13:51:57;99090.38;;;15.00;57.57
141;BME280;65;48.778;9.160;2023-02-18T13:54:26;99089.72;;;15.23;56.76
141;BME280;65;48.778;9.160;2023-02-18T13:57:01;99087.81;;;14.98;56.65
141;BME280;65;48.778;9.160;2023-02-18T14:13:02;99058.06;;;15.18;55.65
141;BME280;65;48.778;9.160;2023-02-18T14:25:52;99052.66;;;14.93;58.20
141;BME280;65;48.778;9.160;2023-02-18T14:33:33;99035.72;;;14.81;58.39
141;BME280;65;48.778;9.160;2023-02-18T14:48:44;99039.41;;;14.66;58.49
141;BME280;65;48.778;9.160;2023-02-18T14:51:15;99036.75;;;14.66;59.06
141;BME280;65;48.778;9.160;2023-02-18T14:53:44;99039.59;;;14.63;59.03
141;BME280;65;48.778;9.160;2023-02-18T14:56:14;99044.28;;;14.60;59.05
141;BME280;65;48.778;9.160;2023-02-18T14:58:55;99041.09;;;14.67;59.23
141;BME280;65;48.778;9.160;2023-02-18T15:01:31;99038.44;;;14.67;59.68
141;BME280;65;48.778;9.160;2023-02-18T15:03:57;99053.34;;;14.43;61.28
141;BME280;65;48.778;9.160;2023-02-18T15:06:36;99051.53;;;14.43;61.03
141;BME280;65;48.778;9.160;2023-02-18T15:09:21;99056.06;;;14.55;60.26
141;BME280;65;48.778;9.160;2023-02-18T15:12:04;99055.13;;;14.57;60.25
141;BME280;65;48.778;9.160;2023-02-18T15:14:37;99054.41;;;14.67;60.06
141;BME280;65;48.778;9.160;2023-02-18T15:17:06;99046.53;;;14.66;59.79
141;BME280;65;48.778;9.160;2023-02-18T15:19:42;99055.03;;;14.58;59.72
141;BME280;65;48.778;9.160;2023-02-18T15:22:18;99052.31;;;14.45;60.75
141;BME280;65;48.778;9.160;2023-02-18T15:24:43;99047.44;;;14.38;60.43
141;BME280;65;48.778;9.160;2023-02-18T15:27:15;99064.19;;;14.25;61.58
141;BME280;65;48.778;9.160;2023-02-18T15:29:41;99062.38;;;14.26;61.37
141;BME280;65;48.778;9.160;2023-02-18T15:32:19;99062.78;;;14.20;61.32
141;BME280;65;48.778;9.160;2023-02-18T15:34:49;99066.88;;;14.11;62.50
141;BME280;65;48.778;9.160;2023-02-18T15:37:15;99073.44;;;14.06;63.00
141;BME280;65;48.778;9.160;2023-02-18T15:39:42;99067.25;;;14.05;62.98
141;BME280;65;48.778;9.160;2023-02-18T15:42:27;99051.41;;;14.04;62.75
141;BME280;65;48.778;9.160;2023-02-18T15:45:16;99064.22;;;13.83;64.06
141;BME280;65;48.778;9.160;2023-02-18T15:47:44;99068.31;;;13.88;63.48
141;BME280;65;48.778;9.160;2023-02-18T15:50:17;99066.22;;;13.93;63.93
141;BME280;65;48.778;9.160;2023-02-18T15:52:43;99068.31;;;13.88;63.78
141;BME280;65;48.778;9.160;2023-02-18T15:55:21;99053.78;;;13.66;65.20
141;BME280;65;48.778;9.160;2023-02-18T15:57:49;99052.84;;;13.67;64.94
141;BME280;65;48.778;9.160;2023-02-18T16:00:20;99043.16;;;13.66;64.89
141;BME280;65;48.778;9.160;2023-02-18T16:03:11;99059.66;;;13.71;65.08
141;BME280;65;48.778;9.160;2023-02-18T16:05:38;99050.66;;;13.59;65.81
141;BME280;65;48.778;9.160;2023-02-18T16:10:43;99050.38;;;13.49;66.15
141;BME280;65;48.778;9.160;2023-02-18T16:13:15;99052.94;;;13.51;66.64
141;BME280;65;48.778;9.160;2023-02-18T16:15:43;99041.38;;;13.52;66.49
141;BME280;65;48.778;9.160;2023-02-18T16:21:01;99040.41;;;13.39;67.79
141;BME280;65;48.778;9.160;2023-02-18T16:31:38;99026.34;;;13.22;68.28
141;BME280;65;48.778;9.160;2023-02-18T16:34:04;99029.84;;;13.23;68.58
141;BME280;65;48.778;9.160;2023-02-18T16:36:30;99021.56;;;13.13;68.59
141;BME280;65;48.778;9.160;2023-02-18T16:38:56;99024.38;;;12.96;70.15
141;BME280;65;48.778;9.160;2023-02-18T16:41:23;99023.81;;;13.05;69.49
141;BME280;65;48.778;9.160;2023-02-18T16:43:49;99024.94;;;13.01;69.56
141;BME280;65;48.778;9.160;2023-02-18T16:46:17;99030.25;;;13.01;69.52
141;BME280;65;48.778;9.160;2023-02-18T16:48:45;99029.00;;;12.92;69.67
141;BME280;65;48.778;9.160;2023-02-18T16:51:15;99031.47;;;12.95;69.77
141;BME280;65;48.778;9.160;2023-02-18T16:53:41;99028.72;;;12.97;69.85
141;BME280;65;48.778;9.160;2023-02-18T16:56:21;99038.50;;;12.96;69.85
141;BME280;65;48.778;9.160;2023-02-18T16:58:47;99034.13;;;12.95;70.28
141;BME280;65;48.778;9.160;2023-02-18T17:01:30;99036.69;;;12.97;70.09
141;BME280;65;48.778;9.160;2023-02-18T17:03:58;99041.06;;;12.98;69.95
141;BME280;65;48.778;9.160;2023-02-18T17:06:25;99041.72;;;13.02;70.28
141;BME280;65;48.778;9.160;2023-02-18T17:08:51;99050.91;;;12.96;69.99
141;BME280;65;48.778;9.160;2023-02-18T17:11:31;99047.00;;;12.87;70.76
141;BME280;65;48.778;9.160;2023-02-18T17:13:58;99051.09;;;12.93;70.75
141;BME280;65;48.778;9.160;2023-02-18T17:16:24;99056.47;;;12.91;71.18
141;BME280;65;48.778;9.160;2023-02-18T17:18:50;99043.41;;;12.88;71.42
141;BME280;65;48.778;9.160;2023-02-18T17:21:18;99055.53;;;12.92;71.70
141;BME280;65;48.778;9.160;2023-02-18T17:23:44;99053.81;;;12.91;71.34
141;BME280;65;48.778;9.160;2023-02-18T17:26:22;99064.16;;;12.96;71.03
141;BME280;65;48.778;9.160;2023-02-18T17:28:55;99066.97;;;12.79;71.82
141;BME280;65;48.778;9.160;2023-02-18T17:31:24;99076.34;;;12.84;72.29
141;BME280;65;48.778;9.160;2023-02-18T17:33:52;99076.75;;;12.92;71.47
141;BME280;65;48.778;9.160;2023-02-18T17:36:18;99085.00;;;12.88;71.65
141;BME280;65;48.778;9.160;2023-02-18T17:38:43;99091.78;;;12.78;73.38
141;BME280;65;48.778;9.160;2023-02-18T17:41:10;99095.38;;;12.77;73.39
141;BME280;65;48.778;9.160;2023-02-18T17:43:36;99092.38;;;12.83;73.59
141;BME280;65;48.778;9.160;2023-02-18T17:46:02;99097.66;;;12.83;73.58
141;BME280;65;48.778;9.160;2023-02-18T17:48:27;99090.81;;;12.63;74.78
141;BME280;65;48.778;9.160;2023-02-18T17:50:54;99091.50;;;12.66;74.18
141;BME280;65;48.778;9.160;2023-02-18T17:53:20;99095.38;;;12.61;74.97
141;BME280;65;48.778;9.160;2023-02-18T17:55:46;99096.84;;;12.51;76.20
141;BME280;65;48.778;9.160;2023-02-18T17:58:12;99094.53;;;12.45;76.22
141;BME280;65;48.778;9.160;2023-02-18T18:00:40;99099.06;;;12.43;76.64